sensor_id;sensor_type;location;lat;lon;timestamp;temperature;humidity
43227;DHT22;28839;52.404;9.808;2023-10-08T00:01:18;12.90;99.90
43227;DHT22;28839;52.404;9.808;2023-10-08T00:08:13;12.90;99.90
43227;DHT22;28839;52.404;9.808;2023-10-08T00:15:09;12.60;99.90
43227;DHT22;28839;52.404;9.808;2023-10-08T00:22:05;12.60;99.90
43227;DHT22;28839;52.404;9.808;2023-10-08T00:28:59;12.50;99.90
43227;DHT22;28839;52.404;9.808;2023-10-08T00:35:58;12.30;99.90
43227;DHT22;28839;52.404;9.808;2023-10-08T00:42:53;12.20;99.90
43227;DHT22;28839;52.404;9.808;2023-10-08T00:49:49;12.10;99.90
43227;DHT22;28839;52.404;9.808;2023-10-08T00:56:46;12.00;99.90
43227;DHT22;28839;52.404;9.808;2023-10-08T01:03:51;12.00;99.90
43227;DHT22;28839;52.404;9.808;2023-10-08T01:10:47;11.90;99.90
43227;DHT22;28839;52.404;9.808;2023-10-08T01:17:49;11.50;99.90
43227;DHT22;28839;52.404;9.808;2023-10-08T01:24:46;11.30;99.90
43227;DHT22;28839;52.404;9.808;2023-10-08T01:31:41;11.40;99.90
43227;DHT22;28839;52.404;9.808;2023-10-08T01:38:34;11.60;99.90
43227;DHT22;28839;52.404;9.808;2023-10-08T01:45:29;11.60;99.90
43227;DHT22;28839;52.404;9.808;2023-10-08T01:52:24;11.80;99.90
43227;DHT22;28839;52.404;9.808;2023-10-08T01:59:18;11.80;99.90
43227;DHT22;28839;52.404;9.808;2023-10-08T02:06:13;11.90;99.90
43227;DHT22;28839;52.404;9.808;2023-10-08T02:13:06;11.80;99.90
43227;DHT22;28839;52.404;9.808;2023-10-08T02:20:00;11.90;99.90
43227;DHT22;28839;52.404;9.808;2023-10-08T02:27:02;11.90;99.90
43227;DHT22;28839;52.404;9.808;2023-10-08T02:33:55;11.90;99.90
43227;DHT22;28839;52.404;9.808;2023-10-08T02:40:51;11.90;99.90
43227;DHT22;28839;52.404;9.808;2023-10-08T02:47:50;12.00;99.90
43227;DHT22;28839;52.404;9.808;2023-10-08T02:54:45;11.90;99.90
43227;DHT22;28839;52.404;9.808;2023-10-08T03:01:38;11.80;99.90
43227;DHT22;28839;52.404;9.808;2023-10-08T03:08:34;11.90;99.90
43227;DHT22;28839;52.404;9.808;2023-10-08T03:15:29;11.90;99.90
43227;DHT22;28839;52.404;9.808;2023-10-08T03:22:23;11.90;99.90
43227;DHT22;28839;52.404;9.808;2023-10-08T03:29:26;11.90;99.90
43227;DHT22;28839;52.404;9.808;2023-10-08T03:36:22;11.90;99.90
43227;DHT22;28839;52.404;9.808;2023-10-08T03:43:26;11.90;99.90
43227;DHT22;28839;52.404;9.808;2023-10-08T03:50:36;11.80;99.90
43227;DHT22;28839;52.404;9.808;2023-10-08T03:57:35;11.90;99.90
43227;DHT22;28839;52.404;9.808;2023-10-08T04:04:34;11.90;99.90
43227;DHT22;28839;52.404;9.808;2023-10-08T04:11:42;11.80;99.90
43227;DHT22;28839;52.404;9.808;2023-10-08T04:18:53;11.70;99.90
43227;DHT22;28839;52.404;9.808;2023-10-08T04:25:47;11.80;99.90
43227;DHT22;28839;52.404;9.808;2023-10-08T04:32:47;11.80;99.90
43227;DHT22;28839;52.404;9.808;2023-10-08T04:39:45;11.80;99.90
43227;DHT22;28839;52.404;9.808;2023-10-08T04:46:46;11.70;99.90
43227;DHT22;28839;52.404;9.808;2023-10-08T04:53:45;11.50;99.90
43227;DHT22;28839;52.404;9.808;2023-10-08T05:00:40;11.60;99.90
43227;DHT22;28839;52.404;9.808;2023-10-08T05:07:45;11.50;99.90
43227;DHT22;28839;52.404;9.808;2023-10-08T05:14:55;11.50;99.90
43227;DHT22;28839;52.404;9.808;2023-10-08T05:22:09;11.60;99.90
43227;DHT22;28839;52.404;9.808;2023-10-08T05:29:22;11.50;99.90
43227;DHT22;28839;52.404;9.808;2023-10-08T05:36:40;11.60;99.90
43227;DHT22;28839;52.404;9.808;2023-10-08T05:43:53;11.60;99.90
43227;DHT22;28839;52.404;9.808;2023-10-08T05:51:06;11.60;99.90
43227;DHT22;28839;52.404;9.808;2023-10-08T05:58:07;11.60;99.90
43227;DHT22;28839;52.404;9.808;2023-10-08T06:05:27;11.60;99.90
43227;DHT22;28839;52.404;9.808;2023-10-08T06:12:25;11.60;99.90
43227;DHT22;28839;52.404;9.808;2023-10-08T06:19:24;11.70;99.90
43227;DHT22;28839;52.404;9.808;2023-10-08T06:26:18;11.70;99.90
43227;DHT22;28839;52.404;9.808;2023-10-08T06:33:13;11.80;99.90
43227;DHT22;28839;52.404;9.808;2023-10-08T06:40:09;11.80;99.90
43227;DHT22;28839;52.404;9.808;2023-10-08T06:47:24;11.90;99.90
43227;DHT22;28839;52.404;9.808;2023-10-08T06:54:18;12.00;99.90
43227;DHT22;28839;52.404;9.808;2023-10-08T07:01:13;12.10;99.90
43227;DHT22;28839;52.404;9.808;2023-10-08T07:08:13;12.30;99.90
43227;DHT22;28839;52.404;9.808;2023-10-08T07:15:08;12.30;99.90
43227;DHT22;28839;52.404;9.808;2023-10-08T07:22:07;12.30;99.90
43227;DHT22;28839;52.404;9.808;2023-10-08T07:29:10;12.40;99.90
43227;DHT22;28839;52.404;9.808;2023-10-08T07:36:04;12.60;99.90
43227;DHT22;28839;52.404;9.808;2023-10-08T07:43:07;12.90;99.90
43227;DHT22;28839;52.404;9.808;2023-10-08T07:50:01;12.70;99.90
43227;DHT22;28839;52.404;9.808;2023-10-08T07:57:04;12.90;99.90
43227;DHT22;28839;52.404;9.808;2023-10-08T08:04:05;13.00;99.90
43227;DHT22;28839;52.404;9.808;2023-10-08T08:11:02;12.90;99.90
43227;DHT22;28839;52.404;9.808;2023-10-08T08:18:04;13.20;99.90
43227;DHT22;28839;52.404;9.808;2023-10-08T08:25:00;13.20;99.90
43227;DHT22;28839;52.404;9.808;2023-10-08T08:31:57;13.30;99.90
43227;DHT22;28839;52.404;9.808;2023-10-08T08:38:51;13.40;99.90
43227;DHT22;28839;52.404;9.808;2023-10-08T08:45:46;13.40;99.90
43227;DHT22;28839;52.404;9.808;2023-10-08T08:52:41;13.50;99.90
43227;DHT22;28839;52.404;9.808;2023-10-08T08:59:38;13.50;99.90
43227;DHT22;28839;52.404;9.808;2023-10-08T09:06:34;13.80;99.90
43227;DHT22;28839;52.404;9.808;2023-10-08T09:13:30;13.60;99.90
43227;DHT22;28839;52.404;9.808;2023-10-08T09:20:24;13.70;99.90
43227;DHT22;28839;52.404;9.808;2023-10-08T09:27:20;13.90;99.90
43227;DHT22;28839;52.404;9.808;2023-10-08T09:34:16;14.00;99.90
43227;DHT22;28839;52.404;9.808;2023-10-08T09:41:09;14.30;99.90
43227;DHT22;28839;52.404;9.808;2023-10-08T09:48:05;14.00;99.90
43227;DHT22;28839;52.404;9.808;2023-10-08T09:55:06;14.10;99.90
43227;DHT22;28839;52.404;9.808;2023-10-08T10:02:02;14.70;99.90
43227;DHT22;28839;52.404;9.808;2023-10-08T10:08:58;15.70;99.90
43227;DHT22;28839;52.404;9.808;2023-10-08T10:15:53;15.20;99.90
43227;DHT22;28839;52.404;9.808;2023-10-08T10:22:47;15.20;99.90
43227;DHT22;28839;52.404;9.808;2023-10-08T10:29:42;15.50;99.90
43227;DHT22;28839;52.404;9.808;2023-10-08T10:36:37;15.50;99.90
43227;DHT22;28839;52.404;9.808;2023-10-08T10:43:31;15.50;99.90
43227;DHT22;28839;52.404;9.808;2023-10-08T10:50:26;15.50;99.90
43227;DHT22;28839;52.404;9.808;2023-10-08T10:57:24;15.10;99.90
43227;DHT22;28839;52.404;9.808;2023-10-08T11:04:26;15.80;99.90
43227;DHT22;28839;52.404;9.808;2023-10-08T11:11:26;16.00;99.90
43227;DHT22;28839;52.404;9.808;2023-10-08T11:18:21;15.70;99.90
43227;DHT22;28839;52.404;9.808;2023-10-08T11:25:20;15.50;99.90
43227;DHT22;28839;52.404;9.808;2023-10-08T11:32:16;15.80;99.90
43227;DHT22;28839;52.404;9.808;2023-10-08T11:39:10;15.90;99.90
43227;DHT22;28839;52.404;9.808;2023-10-08T11:46:13;15.90;99.90
43227;DHT22;28839;52.404;9.808;2023-10-08T11:53:12;16.30;99.90
43227;DHT22;28839;52.404;9.808;2023-10-08T12:00:06;16.20;99.90
43227;DHT22;28839;52.404;9.808;2023-10-08T12:07:11;16.00;99.90
43227;DHT22;28839;52.404;9.808;2023-10-08T12:14:07;16.40;99.90
43227;DHT22;28839;52.404;9.808;2023-10-08T12:21:01;16.20;99.90
43227;DHT22;28839;52.404;9.808;2023-10-08T12:27:54;16.50;99.90
43227;DHT22;28839;52.404;9.808;2023-10-08T12:34:50;16.20;99.90
43227;DHT22;28839;52.404;9.808;2023-10-08T12:41:46;16.10;99.90
43227;DHT22;28839;52.404;9.808;2023-10-08T12:48:39;16.00;99.90
43227;DHT22;28839;52.404;9.808;2023-10-08T12:55:34;15.90;99.90
43227;DHT22;28839;52.404;9.808;2023-10-08T13:02:31;16.10;99.90
43227;DHT22;28839;52.404;9.808;2023-10-08T13:09:27;15.70;99.90
43227;DHT22;28839;52.404;9.808;2023-10-08T13:16:25;15.50;99.90
43227;DHT22;28839;52.404;9.808;2023-10-08T13:23:18;15.70;99.90
43227;DHT22;28839;52.404;9.808;2023-10-08T13:30:13;16.00;99.90
43227;DHT22;28839;52.404;9.808;2023-10-08T13:37:08;15.80;99.90
43227;DHT22;28839;52.404;9.808;2023-10-08T13:44:01;16.00;99.90
43227;DHT22;28839;52.404;9.808;2023-10-08T13:50:58;15.80;99.90
43227;DHT22;28839;52.404;9.808;2023-10-08T13:57:53;15.60;99.90
43227;DHT22;28839;52.404;9.808;2023-10-08T14:04:47;15.50;99.90
43227;DHT22;28839;52.404;9.808;2023-10-08T14:11:42;15.70;99.90
43227;DHT22;28839;52.404;9.808;2023-10-08T14:18:37;15.80;99.90
43227;DHT22;28839;52.404;9.808;2023-10-08T14:25:33;16.10;99.90
43227;DHT22;28839;52.404;9.808;2023-10-08T14:32:34;16.00;99.90
43227;DHT22;28839;52.404;9.808;2023-10-08T14:39:30;15.80;99.90
43227;DHT22;28839;52.404;9.808;2023-10-08T14:46:42;15.90;99.90
43227;DHT22;28839;52.404;9.808;2023-10-08T14:53:36;15.90;99.90
43227;DHT22;28839;52.404;9.808;2023-10-08T15:00:32;16.20;99.90
43227;DHT22;28839;52.404;9.808;2023-10-08T15:07:28;16.20;99.90
43227;DHT22;28839;52.404;9.808;2023-10-08T15:14:21;16.10;99.90
43227;DHT22;28839;52.404;9.808;2023-10-08T15:21:18;15.90;99.90
43227;DHT22;28839;52.404;9.808;2023-10-08T15:28:11;15.80;99.90
43227;DHT22;28839;52.404;9.808;2023-10-08T15:35:05;15.60;99.90
43227;DHT22;28839;52.404;9.808;2023-10-08T15:42:02;15.40;99.90
43227;DHT22;28839;52.404;9.808;2023-10-08T15:48:56;15.10;99.90
43227;DHT22;28839;52.404;9.808;2023-10-08T15:55:49;14.80;99.90
43227;DHT22;28839;52.404;9.808;2023-10-08T16:02:44;14.60;99.90
43227;DHT22;28839;52.404;9.808;2023-10-08T16:09:39;14.50;99.90
43227;DHT22;28839;52.404;9.808;2023-10-08T16:16:33;14.40;99.90
43227;DHT22;28839;52.404;9.808;2023-10-08T16:23:28;14.40;99.90
43227;DHT22;28839;52.404;9.808;2023-10-08T16:30:25;14.40;99.90
43227;DHT22;28839;52.404;9.808;2023-10-08T16:37:20;14.30;99.90
43227;DHT22;28839;52.404;9.808;2023-10-08T16:44:15;14.10;99.90
43227;DHT22;28839;52.404;9.808;2023-10-08T16:51:12;14.40;99.90
43227;DHT22;28839;52.404;9.808;2023-10-08T16:58:07;14.10;99.90
43227;DHT22;28839;52.404;9.808;2023-10-08T17:05:04;13.90;99.90
43227;DHT22;28839;52.404;9.808;2023-10-08T17:11:58;13.90;99.90
43227;DHT22;28839;52.404;9.808;2023-10-08T17:18:52;13.80;99.90
43227;DHT22;28839;52.404;9.808;2023-10-08T17:25:48;13.80;99.90
43227;DHT22;28839;52.404;9.808;2023-10-08T17:32:43;13.70;99.90
43227;DHT22;28839;52.404;9.808;2023-10-08T17:39:36;13.70;99.90
43227;DHT22;28839;52.404;9.808;2023-10-08T17:46:32;13.70;99.90
43227;DHT22;28839;52.404;9.808;2023-10-08T17:53:25;13.60;99.90
43227;DHT22;28839;52.404;9.808;2023-10-08T18:00:19;13.60;99.90
43227;DHT22;28839;52.404;9.808;2023-10-08T18:07:14;13.70;99.90
43227;DHT22;28839;52.404;9.808;2023-10-08T18:14:08;13.60;99.90
43227;DHT22;28839;52.404;9.808;2023-10-08T18:21:03;13.70;99.90
43227;DHT22;28839;52.404;9.808;2023-10-08T18:28:03;13.50;99.90
43227;DHT22;28839;52.404;9.808;2023-10-08T18:34:57;13.60;99.90
43227;DHT22;28839;52.404;9.808;2023-10-08T18:41:51;13.60;99.90
43227;DHT22;28839;52.404;9.808;2023-10-08T18:48:46;13.50;99.90
43227;DHT22;28839;52.404;9.808;2023-10-08T18:55:40;13.50;99.90
43227;DHT22;28839;52.404;9.808;2023-10-08T19:02:34;13.50;99.90
43227;DHT22;28839;52.404;9.808;2023-10-08T19:09:29;13.40;99.90
43227;DHT22;28839;52.404;9.808;2023-10-08T19:16:22;13.40;99.90
43227;DHT22;28839;52.404;9.808;2023-10-08T19:23:17;13.40;99.90
43227;DHT22;28839;52.404;9.808;2023-10-08T19:30:12;13.40;99.90
43227;DHT22;28839;52.404;9.808;2023-10-08T19:37:08;13.40;99.90
43227;DHT22;28839;52.404;9.808;2023-10-08T19:44:02;13.40;99.90
43227;DHT22;28839;52.404;9.808;2023-10-08T19:50:57;13.40;99.90
43227;DHT22;28839;52.404;9.808;2023-10-08T19:57:51;13.30;99.90
43227;DHT22;28839;52.404;9.808;2023-10-08T20:04:45;13.40;99.90
43227;DHT22;28839;52.404;9.808;2023-10-08T20:11:40;13.30;99.90
43227;DHT22;28839;52.404;9.808;2023-10-08T20:18:34;13.30;99.90
43227;DHT22;28839;52.404;9.808;2023-10-08T20:25:28;13.20;99.90
43227;DHT22;28839;52.404;9.808;2023-10-08T20:32:24;13.20;99.90
43227;DHT22;28839;52.404;9.808;2023-10-08T20:39:18;13.20;99.90
43227;DHT22;28839;52.404;9.808;2023-10-08T20:46:21;13.20;99.90
43227;DHT22;28839;52.404;9.808;2023-10-08T20:53:16;13.20;99.90
43227;DHT22;28839;52.404;9.808;2023-10-08T21:00:10;13.10;99.90
43227;DHT22;28839;52.404;9.808;2023-10-08T21:07:09;13.10;99.90
43227;DHT22;28839;52.404;9.808;2023-10-08T21:14:04;13.00;99.90
43227;DHT22;28839;52.404;9.808;2023-10-08T21:20:59;13.00;99.90
43227;DHT22;28839;52.404;9.808;2023-10-08T21:27:53;13.00;99.90
43227;DHT22;28839;52.404;9.808;2023-10-08T21:34:50;12.90;99.90
43227;DHT22;28839;52.404;9.808;2023-10-08T21:41:44;13.00;99.90
43227;DHT22;28839;52.404;9.808;2023-10-08T21:48:38;13.00;99.90
43227;DHT22;28839;52.404;9.808;2023-10-08T21:55:33;13.00;99.90
43227;DHT22;28839;52.404;9.808;2023-10-08T22:02:28;12.90;99.90
43227;DHT22;28839;52.404;9.808;2023-10-08T22:09:36;12.80;99.90
43227;DHT22;28839;52.404;9.808;2023-10-08T22:16:31;12.80;99.90
43227;DHT22;28839;52.404;9.808;2023-10-08T22:23:25;12.60;99.90
43227;DHT22;28839;52.404;9.808;2023-10-08T22:30:19;12.70;99.90
43227;DHT22;28839;52.404;9.808;2023-10-08T22:37:20;12.60;99.90
43227;DHT22;28839;52.404;9.808;2023-10-08T22:44:24;12.50;99.90
43227;DHT22;28839;52.404;9.808;2023-10-08T22:51:21;12.50;99.90
43227;DHT22;28839;52.404;9.808;2023-10-08T22:58:19;12.40;99.90
43227;DHT22;28839;52.404;9.808;2023-10-08T23:05:13;12.30;99.90
43227;DHT22;28839;52.404;9.808;2023-10-08T23:12:07;12.40;99.90
43227;DHT22;28839;52.404;9.808;2023-10-08T23:19:03;12.40;99.90
43227;DHT22;28839;52.404;9.808;2023-10-08T23:25:56;12.40;99.90
43227;DHT22;28839;52.404;9.808;2023-10-08T23:32:51;12.30;99.90
43227;DHT22;28839;52.404;9.808;2023-10-08T23:39:46;12.30;99.90
43227;DHT22;28839;52.404;9.808;2023-10-08T23:46:40;12.20;99.90
43227;DHT22;28839;52.404;9.808;2023-10-08T23:53:36;12.30;99.90
